createdAt,value
2018-06-15T00:01:40.349Z,71.74
2018-06-15T00:04:11.563Z,71.95
2018-06-15T00:06:47.142Z,71.87
2018-06-15T00:09:23.237Z,72.25
2018-06-15T00:11:56.408Z,72.23
2018-06-15T00:17:04.923Z,72.17
2018-06-15T00:19:35.601Z,72.33
2018-06-15T00:22:09.179Z,72.24
2018-06-15T00:24:43.513Z,72.12
2018-06-15T00:27:16.057Z,72.36
2018-06-15T00:29:47.802Z,72.41
2018-06-15T00:32:23.363Z,72.43
2018-06-15T00:35:00.173Z,72.40
2018-06-15T00:37:32.750Z,72.41
2018-06-15T00:40:06.976Z,72.46
2018-06-15T00:42:39.761Z,72.57
2018-06-15T00:45:15.085Z,72.45
2018-06-15T00:47:48.059Z,72.58
2018-06-15T00:50:22.971Z,72.68
2018-06-15T00:52:53.585Z,72.57
2018-06-15T00:55:28.015Z,72.90
2018-06-15T00:58:04.406Z,72.92
2018-06-15T01:00:36.798Z,73.04
2018-06-15T01:03:08.128Z,73.08
2018-06-15T01:05:36.950Z,73.12
2018-06-15T01:08:05.957Z,73.37
2018-06-15T01:10:34.890Z,73.26
2018-06-15T01:13:05.348Z,73.41
2018-06-15T01:15:40.723Z,73.42
2018-06-15T01:18:15.551Z,73.34
2018-06-15T01:20:47.877Z,73.51
2018-06-15T01:23:21.068Z,73.71
2018-06-15T01:25:52.199Z,73.65
2018-06-15T01:28:40.184Z,73.92
2018-06-15T01:31:13.264Z,73.89
2018-06-15T01:33:46.229Z,73.89
2018-06-15T01:36:16.573Z,73.92
2018-06-15T01:38:51.942Z,74.05
2018-06-15T01:41:24.560Z,73.94
2018-06-15T01:43:55.850Z,73.91
2018-06-15T01:46:29.264Z,74.18
2018-06-15T01:49:01.060Z,73.96
2018-06-15T01:51:32.485Z,73.97
2018-06-15T01:54:04.268Z,74.23
2018-06-15T01:56:36.976Z,74.51
2018-06-15T01:59:07.462Z,74.40
2018-06-15T02:01:37.742Z,74.40
2018-06-15T02:04:15.340Z,74.58
2018-06-15T02:06:46.892Z,74.68
2018-06-15T02:09:20.258Z,74.71
2018-06-15T02:11:52.348Z,74.84
2018-06-15T02:14:24.204Z,75.08
2018-06-15T02:16:53.058Z,74.72
2018-06-15T02:19:21.842Z,75.19
2018-06-15T02:21:50.754Z,75.39
2018-06-15T02:24:20.692Z,75.19
2018-06-15T02:26:52.039Z,75.30
2018-06-15T02:29:27.085Z,75.59
2018-06-15T02:31:57.093Z,75.75
2018-06-15T02:34:27.523Z,75.83
2018-06-15T02:37:03.502Z,75.78
2018-06-15T02:39:39.027Z,75.74
2018-06-15T02:42:12.124Z,75.74
2018-06-15T02:44:41.005Z,76.21
2018-06-15T02:47:09.815Z,76.20
2018-06-15T02:49:38.729Z,76.52
2018-06-15T02:52:08.088Z,76.87
2018-06-15T02:54:40.127Z,76.43
2018-06-15T02:57:16.732Z,76.50
2018-06-15T02:59:49.668Z,76.95
2018-06-15T03:02:24.232Z,76.89
2018-06-15T03:04:56.976Z,77.08
2018-06-15T03:10:03.098Z,77.09
2018-06-15T03:12:31.882Z,77.15
2018-06-15T03:15:00.819Z,77.17
2018-06-15T03:17:32.225Z,77.28
2018-06-15T03:20:04.400Z,77.29
2018-06-15T03:22:36.426Z,76.89
2018-06-15T03:25:08.659Z,76.81
2018-06-15T03:27:37.675Z,77.54
2018-06-15T03:30:06.675Z,77.11
2018-06-15T03:32:35.497Z,77.07
2018-06-15T03:35:04.892Z,76.99
2018-06-15T03:37:36.087Z,76.90
2018-06-15T03:40:07.503Z,76.87
2018-06-15T03:42:40.474Z,76.86
2018-06-15T03:45:09.396Z,76.95
2018-06-15T03:47:38.330Z,76.75
2018-06-15T03:50:07.146Z,76.70
2018-06-15T03:52:36.279Z,76.94
2018-06-15T03:55:09.164Z,76.68
2018-06-15T03:57:39.388Z,77.00
2018-06-15T04:00:10.190Z,77.57
2018-06-15T04:02:40.871Z,77.08
2018-06-15T04:05:09.726Z,77.50
2018-06-15T04:07:38.697Z,77.35
2018-06-15T04:10:07.598Z,77.45
2018-06-15T04:12:40.291Z,77.76
2018-06-15T04:15:11.691Z,77.60
2018-06-15T04:17:43.111Z,77.43
2018-06-15T04:20:15.254Z,77.05
2018-06-15T04:22:44.162Z,77.02
2018-06-15T04:25:13.005Z,77.61
2018-06-15T04:27:41.918Z,77.25
2018-06-15T04:30:13.039Z,77.16
2018-06-15T04:32:43.410Z,77.28
2018-06-15T04:35:13.529Z,77.41
2018-06-15T04:37:47.343Z,77.31
2018-06-15T04:40:16.098Z,77.00
2018-06-15T04:42:45.154Z,77.25
2018-06-15T04:45:14.192Z,77.01
2018-06-15T04:47:44.971Z,77.26
2018-06-15T04:50:16.061Z,77.05
2018-06-15T04:52:47.379Z,77.32
2018-06-15T04:55:19.677Z,77.69
2018-06-15T04:57:48.554Z,77.51
2018-06-15T05:00:17.358Z,77.34
2018-06-15T05:02:46.351Z,77.28
2018-06-15T05:05:16.643Z,77.31
2018-06-15T05:07:47.524Z,77.37
2018-06-15T05:10:20.563Z,77.48
2018-06-15T05:12:52.600Z,77.57
2018-06-15T05:15:21.453Z,77.30
2018-06-15T05:17:50.344Z,77.61
2018-06-15T05:20:19.468Z,77.19
2018-06-15T05:22:51.851Z,77.12
2018-06-15T05:25:25.877Z,77.17
2018-06-15T05:27:57.143Z,77.37
2018-06-15T05:30:27.419Z,77.57
2018-06-15T05:33:00.381Z,77.63
2018-06-15T05:35:32.062Z,77.56
2018-06-15T05:38:00.990Z,76.94
2018-06-15T05:40:29.869Z,77.61
2018-06-15T05:42:58.710Z,77.38
2018-06-15T05:45:29.170Z,77.28
2018-06-15T05:47:59.469Z,77.23
2018-06-15T05:50:31.481Z,77.31
2018-06-15T05:53:01.660Z,77.15
2018-06-15T05:55:32.919Z,77.96
2018-06-15T05:58:05.264Z,77.25
2018-06-15T06:00:34.066Z,77.30
2018-06-15T06:03:02.906Z,77.19
2018-06-15T06:05:31.873Z,77.26
2018-06-15T06:08:03.644Z,76.97
2018-06-15T06:10:35.971Z,76.89
2018-06-15T06:13:12.623Z,77.07
2018-06-15T06:21:20.360Z,76.94
2018-06-15T06:23:49.382Z,76.96
2018-06-15T06:26:18.374Z,76.83
2018-06-15T06:28:47.311Z,76.55
2018-06-15T06:31:17.088Z,76.70
2018-06-15T06:33:52.277Z,76.62
2018-06-15T06:39:17.172Z,76.79
2018-06-15T06:41:48.479Z,76.85
2018-06-15T06:44:22.951Z,76.69
2018-06-15T06:47:00.487Z,76.53
2018-06-15T06:52:15.407Z,76.28
2018-06-15T06:54:51.281Z,76.10
2018-06-15T06:57:27.954Z,76.13
2018-06-15T07:00:05.211Z,75.93
2018-06-15T07:02:39.310Z,75.66
2018-06-15T07:24:02.536Z,73.76
2018-06-15T07:26:52.226Z,73.34
2018-06-15T07:42:01.351Z,71.59
2018-06-15T07:44:44.539Z,71.94
2018-06-15T08:05:47.665Z,72.98
2018-06-15T08:08:20.515Z,72.78
2018-06-15T08:11:01.387Z,72.55
2018-06-15T08:13:32.755Z,72.62
2018-06-15T08:49:56.773Z,69.26
2018-06-15T11:08:12.380Z,57.97
2018-06-15T11:10:41.465Z,57.82
2018-06-15T11:13:10.622Z,57.54
2018-06-15T13:12:32.554Z,55.00
2018-06-15T13:15:02.835Z,55.18
2018-06-15T13:17:33.508Z,55.21
2018-06-15T13:53:44.194Z,50.04
2018-06-15T13:56:24.568Z,50.01
2018-06-15T14:20:33.652Z,47.46
2018-06-15T14:23:04.144Z,46.37
2018-06-15T14:25:34.053Z,46.92
2018-06-15T14:52:30.492Z,43.32
2018-06-15T14:55:02.215Z,43.54
2018-06-15T14:57:34.216Z,42.92
2018-06-15T15:18:23.030Z,42.11
2018-06-15T15:20:55.585Z,42.78
2018-06-15T15:23:26.090Z,43.47
2018-06-15T15:56:14.250Z,44.72
2018-06-15T15:58:43.286Z,44.96
2018-06-15T16:01:12.471Z,46.08
2018-06-15T16:03:44.639Z,45.88
2018-06-15T16:06:16.829Z,46.75
2018-06-15T16:08:48.301Z,47.57
2018-06-15T16:11:23.586Z,48.13
2018-06-15T16:13:54.248Z,48.66
2018-06-15T16:16:23.834Z,48.79
2018-06-15T16:18:55.420Z,49.17
2018-06-15T16:21:24.467Z,49.34
2018-06-15T16:24:04.004Z,49.23
2018-06-15T16:34:53.220Z,50.43
2018-06-15T16:37:22.237Z,50.41
2018-06-15T16:39:52.148Z,50.36
2018-06-15T16:42:21.349Z,50.49
2018-06-15T16:44:50.373Z,50.74
2018-06-15T16:47:21.685Z,51.00
2018-06-15T16:50:03.975Z,51.57
2018-06-15T16:58:11.242Z,53.38
2018-06-15T17:00:40.245Z,54.01
2018-06-15T17:03:09.343Z,54.29
2018-06-15T17:05:45.935Z,54.62
2018-06-15T17:25:47.471Z,50.18
2018-06-15T17:28:16.594Z,49.32
2018-06-15T17:30:46.075Z,48.37
2018-06-15T17:42:26.610Z,46.92
2018-06-15T17:44:55.678Z,46.70
2018-06-15T17:47:24.790Z,46.65
2018-06-15T17:49:57.722Z,45.36
2018-06-15T18:13:55.520Z,49.13
2018-06-15T18:16:24.702Z,50.11
2018-06-15T18:18:53.755Z,50.02
2018-06-15T18:45:46.380Z,54.60
2018-06-15T18:48:15.978Z,55.08
2018-06-15T18:50:45.257Z,55.53
2018-06-15T19:11:32.739Z,59.28
2018-06-15T19:14:01.789Z,59.70
2018-06-15T19:16:32.320Z,60.57
2018-06-15T19:34:15.355Z,63.52
2018-06-15T19:36:44.454Z,64.50
2018-06-15T19:39:13.565Z,64.92
2018-06-15T20:03:03.252Z,66.00
2018-06-15T20:05:33.339Z,66.24
2018-06-15T20:08:02.621Z,66.15
2018-06-15T20:28:57.094Z,65.25
2018-06-15T20:31:26.326Z,65.01
2018-06-15T20:34:12.606Z,64.96
2018-06-15T20:51:55.729Z,64.61
2018-06-15T20:54:24.835Z,64.67
2018-06-15T20:56:54.032Z,64.77
2018-06-15T21:14:36.867Z,66.41
2018-06-15T21:17:05.907Z,66.60
2018-06-15T21:19:35.068Z,66.56
2018-06-15T21:34:15.191Z,67.00
2018-06-15T21:36:44.390Z,67.10
2018-06-15T21:39:13.382Z,67.53
2018-06-15T21:56:54.130Z,67.88
2018-06-15T21:59:23.087Z,67.82
2018-06-15T22:01:52.329Z,68.08
2018-06-15T22:22:39.585Z,69.16
2018-06-15T22:25:08.668Z,69.01
2018-06-15T22:27:37.766Z,69.35
2018-06-15T22:42:18.590Z,70.02
2018-06-15T22:44:47.497Z,70.24
2018-06-15T22:47:16.508Z,70.35
2018-06-15T22:49:47.153Z,70.51
2018-06-15T23:13:37.296Z,71.04
2018-06-15T23:16:06.311Z,71.00
2018-06-15T23:18:35.420Z,71.05
2018-06-15T23:33:28.847Z,70.75
2018-06-15T23:35:57.879Z,70.93
2018-06-15T23:38:26.773Z,70.87
2018-06-15T23:55:41.703Z,70.73
2018-06-15T23:58:10.786Z,70.67
